Time;durP1;ratioP1;P1;durP2;ratioP2;P2;SDS_P1;SDS_P2;PMS_P1;PMS_P2;Temp;Humidity;BMP_temperature;BMP_pressure;BME280_temperature;BME280_humidity;BME280_pressure;Samples;Min_cycle;Max_cycle;Signal;HPM_P1;HPM_P2
2022/11/01 00:00:18;;;;;;;17.85;7.00;;;;;;;15.29;83.45;100714.59;5046089;28;20037;-55
2022/11/01 00:02:44;;;;;;;11.90;6.20;;;;;;;15.31;82.89;100709.13;5040866;28;20120;-54
2022/11/01 00:05:09;;;;;;;15.50;7.05;;;;;;;15.22;83.48;100686.63;5048815;28;20037;-55
2022/11/01 00:07:37;;;;;;;14.68;7.07;;;;;;;15.39;82.50;100702.13;5034275;28;20040;-55
2022/11/01 00:10:05;;;;;;;14.68;6.30;;;;;;;15.48;82.07;100710.34;5035073;28;20068;-55
2022/11/01 00:12:34;;;;;;;16.00;6.55;;;;;;;15.52;82.31;100701.91;5041654;28;20028;-54
2022/11/01 00:15:02;;;;;;;16.23;6.77;;;;;;;15.58;81.96;100703.22;5037557;28;20033;-55
2022/11/01 00:17:27;;;;;;;16.17;6.18;;;;;;;15.66;81.44;100704.25;5028205;28;20354;-55
2022/11/01 00:19:53;;;;;;;13.75;5.93;;;;;;;15.65;81.55;100702.56;5042553;28;20048;-55
2022/11/01 00:22:21;;;;;;;12.55;6.03;;;;;;;15.65;81.78;100693.66;5044906;28;20108;-55
2022/11/01 00:24:46;;;;;;;18.48;7.03;;;;;;;15.70;81.79;100701.34;5035580;28;20445;-55
2022/11/01 00:27:12;;;;;;;13.52;6.10;;;;;;;15.71;82.13;100698.53;5051331;28;20031;-54
2022/11/01 00:29:38;;;;;;;11.15;6.20;;;;;;;15.78;81.53;100690.78;5048617;28;20048;-54
2022/11/01 00:32:04;;;;;;;14.40;5.75;;;;;;;15.83;81.45;100691.25;5031245;28;20049;-55
2022/11/01 00:34:29;;;;;;;13.02;5.82;;;;;;;15.82;81.47;100693.06;5014220;28;20248;-55
2022/11/01 00:36:54;;;;;;;13.90;6.32;;;;;;;15.87;81.34;100695.34;5037702;28;20033;-55
2022/11/01 00:39:20;;;;;;;12.52;5.85;;;;;;;15.87;81.55;100692.66;5044743;28;20548;-55
2022/11/01 00:41:45;;;;;;;16.17;5.18;;;;;;;15.89;81.56;100693.38;5034295;28;20033;-55
2022/11/01 00:44:11;;;;;;;11.07;5.53;;;;;;;15.90;81.68;100685.19;5030120;28;20117;-54
2022/11/01 00:46:36;;;;;;;9.38;5.40;;;;;;;15.94;81.82;100692.97;5031360;28;20124;-55
2022/11/01 00:49:02;;;;;;;13.65;5.53;;;;;;;15.95;81.88;100692.00;5033495;28;20032;-55
2022/11/01 00:51:27;;;;;;;8.57;4.93;;;;;;;15.96;82.28;100678.44;5050878;28;20472;-55
2022/11/01 00:53:53;;;;;;;11.68;5.30;;;;;;;15.98;82.15;100687.19;5030821;28;20033;-55
2022/11/01 00:56:19;;;;;;;9.85;5.30;;;;;;;15.96;82.50;100682.94;5048968;28;20476;-55
2022/11/01 00:58:44;;;;;;;14.63;5.68;;;;;;;15.99;82.13;100680.84;5048979;28;20108;-55
2022/11/01 01:01:09;;;;;;;9.38;5.40;;;;;;;15.99;82.27;100669.28;5037519;28;20041;-54
2022/11/01 01:03:35;;;;;;;13.98;5.85;;;;;;;16.00;82.11;100677.19;5030883;28;20396;-55
2022/11/01 01:06:00;;;;;;;11.63;5.80;;;;;;;15.97;82.47;100668.53;5039577;28;20080;-55
2022/11/01 01:08:26;;;;;;;12.18;5.28;;;;;;;15.93;82.55;100665.28;5031765;28;20029;-54
2022/11/01 01:10:52;;;;;;;11.05;5.78;;;;;;;15.97;82.75;100663.19;5042151;28;20045;-55
2022/11/01 01:13:18;;;;;;;12.68;5.80;;;;;;;16.04;82.61;100669.72;5040405;28;20022;-55
2022/11/01 01:15:47;;;;;;;14.13;5.70;;;;;;;16.04;82.98;100659.00;5038675;28;20029;-55
2022/11/01 01:18:12;;;;;;;12.47;6.07;;;;;;;16.09;82.90;100657.59;5037379;28;20478;-55
2022/11/01 01:20:41;;;;;;;12.13;5.72;;;;;;;15.99;82.76;100634.41;5043249;28;20370;-55
2022/11/01 01:23:06;;;;;;;11.68;6.05;;;;;;;16.10;83.15;100670.00;5036703;28;20030;-55
2022/11/01 01:25:32;;;;;;;13.02;5.65;;;;;;;16.13;83.05;100679.63;5026728;28;20107;-55
2022/11/01 01:27:57;;;;;;;11.20;5.75;;;;;;;16.11;83.39;100678.91;5030780;28;20053;-55
2022/11/01 01:30:23;;;;;;;13.15;6.38;;;;;;;16.07;83.44;100670.28;5030947;28;20090;-55
2022/11/01 01:32:48;;;;;;;12.02;6.32;;;;;;;16.11;83.28;100677.06;5036438;28;20104;-55
2022/11/01 01:35:14;;;;;;;12.07;6.03;;;;;;;16.17;83.25;100675.66;5046680;28;20057;-55
2022/11/01 01:37:39;;;;;;;9.45;4.88;;;;;;;16.10;83.50;100667.31;5049684;28;20029;-55
2022/11/01 01:40:07;;;;;;;12.15;6.03;;;;;;;16.11;83.91;100677.06;5030832;28;20457;-55
2022/11/01 01:42:35;;;;;;;12.32;5.88;;;;;;;16.08;83.84;100666.59;5029720;28;20469;-55
2022/11/01 01:45:06;;;;;;;15.37;6.63;;;;;;;16.16;83.67;100667.78;5032633;28;20396;-55
2022/11/01 01:47:35;;;;;;;11.57;5.88;;;;;;;16.18;83.51;100663.09;5034500;28;20137;-55
2022/11/01 01:50:29;;;;;;;15.30;6.57;;;;;;;16.18;83.68;100657.72;5047821;28;20083;-55
2022/11/01 01:53:27;;;;;;;10.00;5.50;;;;;;;16.17;84.05;100673.00;5045235;28;20384;-54
2022/11/01 01:55:59;;;;;;;10.25;5.43;;;;;;;16.22;83.69;100661.84;5029160;28;20099;-54
2022/11/01 01:58:30;;;;;;;10.50;5.63;;;;;;;16.20;83.69;100656.59;5031245;28;20026;-55
2022/11/01 02:00:56;;;;;;;12.43;6.10;;;;;;;16.19;83.89;100659.44;5042101;28;20441;-55
2022/11/01 02:03:29;;;;;;;12.98;5.97;;;;;;;16.19;84.08;100668.34;5030654;28;20037;-55
2022/11/01 02:06:11;;;;;;;7.95;5.30;;;;;;;16.25;83.87;100665.09;5041622;28;20080;-55
2022/11/01 02:08:41;;;;;;;14.00;5.53;;;;;;;16.20;84.06;100670.03;5032987;28;20277;-55
2022/11/01 02:11:08;;;;;;;14.75;6.25;;;;;;;16.22;84.10;100672.59;5037368;28;20036;-55
2022/11/01 02:13:34;;;;;;;15.32;6.28;;;;;;;16.24;84.09;100682.19;5043783;28;20037;-55
2022/11/01 02:16:34;;;;;;;14.15;5.70;;;;;;;16.30;83.63;100659.34;5049190;28;20028;-55
2022/11/01 02:19:28;;;;;;;13.60;6.55;;;;;;;16.32;83.26;100673.44;5051259;28;20058;-55
2022/11/01 02:21:56;;;;;;;11.15;6.00;;;;;;;16.33;83.16;100673.31;5049317;28;20029;-55
2022/11/01 02:24:43;;;;;;;11.05;5.47;;;;;;;16.28;83.31;100670.19;5046480;28;20052;-55
2022/11/01 02:27:16;;;;;;;13.50;5.07;;;;;;;16.30;83.31;100664.69;5034682;28;20032;-55
2022/11/01 02:30:05;;;;;;;13.10;5.68;;;;;;;16.31;83.13;100672.59;5034827;28;20526;-55
2022/11/01 02:32:40;;;;;;;12.13;5.85;;;;;;;16.25;83.55;100673.16;5035214;28;20033;-54
2022/11/01 02:35:11;;;;;;;10.10;4.85;;;;;;;16.26;83.14;100671.31;5035596;28;20033;-54
2022/11/01 02:37:48;;;;;;;12.75;5.57;;;;;;;16.26;83.14;100677.53;5035688;28;20074;-54
2022/11/01 02:40:24;;;;;;;10.25;5.30;;;;;;;16.24;83.08;100676.84;5046581;28;20041;-53
2022/11/01 02:42:56;;;;;;;10.35;5.40;;;;;;;16.15;83.24;100663.38;5051785;28;20479;-53
2022/11/01 02:45:28;;;;;;;12.18;4.65;;;;;;;16.19;83.58;100681.75;5068094;28;20060;-55
2022/11/01 02:47:56;;;;;;;9.27;5.30;;;;;;;16.19;83.44;100680.91;5046366;28;20025;-55
2022/11/01 02:50:23;;;;;;;13.85;5.88;;;;;;;16.16;83.66;100689.25;5032090;28;20450;-55
2022/11/01 02:52:52;;;;;;;12.50;5.40;;;;;;;16.10;84.08;100686.13;5052643;28;20025;-55
2022/11/01 02:55:30;;;;;;;11.20;5.80;;;;;;;16.09;83.96;100680.91;5036204;28;20082;-54
2022/11/01 02:58:15;;;;;;;7.32;5.30;;;;;;;16.07;84.13;100690.91;5047440;28;20488;-55
2022/11/01 03:00:41;;;;;;;18.13;5.18;;;;;;;16.12;84.16;100702.94;5048320;28;20029;-55
2022/11/01 03:03:15;;;;;;;15.48;5.60;;;;;;;16.07;84.30;100697.13;5047176;28;20065;-54
2022/11/01 03:05:54;;;;;;;9.27;4.90;;;;;;;16.05;84.60;100698.22;5042623;28;20512;-55
2022/11/01 03:08:27;;;;;;;12.43;5.17;;;;;;;15.99;84.68;100696.94;5032443;28;20033;-55
2022/11/01 03:11:19;;;;;;;11.45;5.90;;;;;;;16.03;84.70;100710.94;5035242;28;20035;-55
2022/11/01 03:14:00;;;;;;;14.45;5.53;;;;;;;15.99;84.93;100721.09;5032483;28;20036;-55
2022/11/01 03:16:38;;;;;;;13.25;5.15;;;;;;;15.96;85.02;100713.31;5039920;28;20159;-55
2022/11/01 03:19:15;;;;;;;11.40;5.00;;;;;;;15.99;83.92;100721.09;5039186;28;20450;-55
2022/11/01 03:21:57;;;;;;;11.90;5.55;;;;;;;15.96;83.95;100728.56;5045990;28;20053;-55
2022/11/01 03:24:29;;;;;;;10.40;5.00;;;;;;;15.93;82.70;100734.19;5037968;28;20480;-55
2022/11/01 03:27:02;;;;;;;11.75;4.78;;;;;;;15.92;81.99;100737.88;5047683;28;20044;-55
2022/11/01 03:29:29;;;;;;;7.68;3.92;;;;;;;15.96;79.15;100741.97;5043723;28;20033;-55
2022/11/01 03:31:55;;;;;;;6.22;3.92;;;;;;;15.89;79.38;100741.66;5034136;28;20047;-55
2022/11/01 03:34:23;;;;;;;8.77;3.40;;;;;;;15.85;75.90;100746.47;5036951;28;20032;-55
2022/11/01 03:36:51;;;;;;;6.15;2.58;;;;;;;15.82;74.34;100753.88;5034608;28;20025;-55
2022/11/01 03:39:22;;;;;;;6.53;2.73;;;;;;;15.83;73.68;100771.69;5043599;28;20112;-55
2022/11/01 03:41:52;;;;;;;4.72;2.85;;;;;;;15.77;73.74;100773.06;5042575;28;20102;-55
2022/11/01 03:44:21;;;;;;;6.03;2.90;;;;;;;15.76;72.45;100773.19;5042453;28;20155;-55
2022/11/01 03:46:47;;;;;;;7.43;2.45;;;;;;;15.69;73.16;100772.03;5035331;28;20570;-55
2022/11/01 03:49:17;;;;;;;4.28;2.30;;;;;;;15.63;70.89;100774.22;5042710;28;20037;-55
2022/11/01 03:51:43;;;;;;;5.32;2.05;;;;;;;15.66;68.28;100784.69;5035809;28;20113;-53
2022/11/01 03:54:09;;;;;;;5.68;2.38;;;;;;;15.61;68.25;100792.25;5039139;28;20037;-55
2022/11/01 03:56:40;;;;;;;6.05;1.88;;;;;;;15.53;67.82;100802.81;5016681;28;20059;-55
2022/11/01 03:59:09;;;;;;;3.65;1.70;;;;;;;15.54;66.86;100807.19;5031003;28;20392;-54
2022/11/01 04:01:35;;;;;;;4.38;1.80;;;;;;;15.49;65.04;100811.22;5032365;28;20029;-54
2022/11/01 04:04:03;;;;;;;4.00;1.67;;;;;;;15.50;62.58;100820.97;5032360;28;20036;-54
2022/11/01 04:06:28;;;;;;;5.90;1.88;;;;;;;15.39;62.37;100830.75;5034677;28;20093;-54
2022/11/01 04:08:53;;;;;;;5.90;2.00;;;;;;;15.37;62.42;100843.44;5050924;28;20490;-55
2022/11/01 04:11:19;;;;;;;7.45;1.60;;;;;;;15.36;62.50;100840.91;5036450;28;20518;-55
2022/11/01 04:13:47;;;;;;;7.40;1.77;;;;;;;15.28;63.70;100849.56;5032488;28;20048;-54
2022/11/01 04:21:41;;;;;;;6.53;1.50;;;;;;;15.05;64.97;100864.00;5032290;28;20056;-54
2022/11/01 04:24:07;;;;;;;4.60;1.60;;;;;;;15.04;64.70;100870.34;5043595;28;20033;-55
2022/11/01 04:26:33;;;;;;;6.30;1.38;;;;;;;14.96;64.51;100866.44;5049134;28;20033;-55
2022/11/01 04:28:59;;;;;;;5.65;1.63;;;;;;;14.97;64.38;100872.66;5048224;28;20388;-55
2022/11/01 04:31:29;;;;;;;2.65;1.70;;;;;;;14.88;64.72;100890.34;5030248;28;20152;-55
2022/11/01 04:33:55;;;;;;;5.85;2.17;;;;;;;14.86;64.48;100894.97;5032085;28;20055;-55
2022/11/01 04:36:21;;;;;;;1.98;1.45;;;;;;;14.77;64.88;100893.88;5033144;28;20033;-55
2022/11/01 04:38:52;;;;;;;3.90;1.50;;;;;;;14.67;65.34;100894.72;5032473;28;20492;-55
2022/11/01 04:41:18;;;;;;;5.28;1.83;;;;;;;14.70;64.24;100910.53;5048846;28;20028;-54
2022/11/01 04:43:47;;;;;;;6.82;2.05;;;;;;;14.76;64.32;100918.97;5052063;28;20024;-55
2022/11/01 04:46:16;;;;;;;4.32;1.40;;;;;;;14.65;64.92;100926.97;5040549;28;20044;-55
2022/11/01 04:48:41;;;;;;;2.65;1.45;;;;;;;14.67;64.23;100924.16;5030652;28;20098;-55
2022/11/01 04:51:07;;;;;;;3.67;1.77;;;;;;;14.60;64.76;100936.34;5045710;28;20110;-55
2022/11/01 04:53:38;;;;;;;4.82;1.50;;;;;;;14.51;64.97;100961.97;5034188;28;20056;-55
2022/11/01 04:56:05;;;;;;;4.25;1.67;;;;;;;14.45;65.29;100955.28;5034976;28;20089;-55
2022/11/01 04:58:33;;;;;;;3.95;1.83;;;;;;;14.49;64.78;100961.22;5032717;28;20029;-55
2022/11/01 05:01:02;;;;;;;4.97;1.90;;;;;;;14.39;65.39;100982.50;5042669;28;20370;-54
2022/11/01 05:03:28;;;;;;;3.83;1.63;;;;;;;14.36;64.83;100976.53;5031540;28;20320;-53
2022/11/01 05:05:53;;;;;;;2.92;1.58;;;;;;;14.32;65.67;100981.25;5032739;28;20032;-55
2022/11/01 05:08:19;;;;;;;7.97;2.00;;;;;;;14.28;65.72;100983.31;5034252;28;20105;-55
2022/11/01 05:10:45;;;;;;;7.30;2.08;;;;;;;14.26;65.28;100987.06;5030431;28;20128;-55
2022/11/01 05:13:13;;;;;;;9.82;2.03;;;;;;;14.16;66.30;100991.44;5039337;28;20056;-55
2022/11/01 05:15:41;;;;;;;4.25;1.55;;;;;;;14.12;66.17;100990.81;5033206;28;20121;-55
2022/11/01 05:18:09;;;;;;;8.45;2.17;;;;;;;14.12;66.29;100997.97;5046452;28;20057;-55
2022/11/01 05:20:36;;;;;;;6.75;1.73;;;;;;;14.07;66.38;101001.00;5046080;28;20029;-55
2022/11/01 05:23:04;;;;;;;5.35;2.10;;;;;;;14.08;65.86;101002.69;5030511;28;20036;-55
2022/11/01 05:25:30;;;;;;;5.93;1.70;;;;;;;14.02;66.48;101003.16;5030860;28;20037;-55
2022/11/01 05:28:04;;;;;;;6.10;1.83;;;;;;;14.04;66.02;101007.44;5039437;28;20017;-55
2022/11/01 05:30:30;;;;;;;3.38;1.52;;;;;;;13.98;66.25;101012.41;5031034;28;20053;-54
2022/11/01 05:32:59;;;;;;;4.38;1.80;;;;;;;13.99;66.23;101006.06;5036767;28;20156;-55
2022/11/01 05:35:26;;;;;;;6.00;1.83;;;;;;;13.97;66.38;101010.66;5034640;28;20431;-55
2022/11/01 05:37:52;;;;;;;3.70;2.00;;;;;;;13.92;66.39;101011.03;5036986;28;20065;-55
2022/11/01 05:40:17;;;;;;;5.40;2.03;;;;;;;13.87;66.85;101029.22;5033143;28;20532;-54
2022/11/01 05:42:42;;;;;;;3.72;1.65;;;;;;;13.91;66.38;101017.31;5031637;28;20043;-54
2022/11/01 05:45:11;;;;;;;9.55;2.10;;;;;;;13.84;66.93;101027.63;5033552;28;20053;-55
2022/11/01 05:47:39;;;;;;;5.90;1.80;;;;;;;13.76;67.32;101010.44;5033548;28;20530;-55
2022/11/01 05:50:08;;;;;;;4.35;1.80;;;;;;;13.78;66.68;101028.09;5045334;28;20037;-55
2022/11/01 05:52:35;;;;;;;8.63;2.00;;;;;;;13.72;66.39;101036.56;5036495;28;20101;-55
2022/11/01 05:55:03;;;;;;;7.20;2.00;;;;;;;13.51;66.56;101016.75;5041756;28;20124;-55
2022/11/01 05:57:31;;;;;;;4.57;2.00;;;;;;;13.63;64.98;101029.22;5040481;28;20041;-55
2022/11/01 05:59:57;;;;;;;6.68;2.15;;;;;;;13.73;62.24;101046.28;5047631;28;20105;-54
2022/11/01 06:02:23;;;;;;;8.73;2.65;;;;;;;13.67;62.70;101040.53;5033804;28;20025;-53
2022/11/01 06:04:48;;;;;;;5.30;2.53;;;;;;;13.57;63.05;101043.03;5049985;28;20044;-54
2022/11/01 06:07:14;;;;;;;8.98;2.60;;;;;;;13.55;62.74;101035.09;5034613;28;20458;-55
2022/11/01 06:09:40;;;;;;;6.93;2.05;;;;;;;13.52;62.96;101042.50;5040166;28;20095;-54
2022/11/01 06:12:08;;;;;;;10.20;2.40;;;;;;;13.50;63.02;101057.78;5048299;28;20381;-55
2022/11/01 06:14:33;;;;;;;6.60;2.25;;;;;;;13.45;63.61;101068.81;5017963;28;20036;-55
2022/11/01 06:16:59;;;;;;;7.90;1.92;;;;;;;13.48;63.77;101068.59;5044380;28;20021;-55
2022/11/01 06:19:24;;;;;;;6.13;2.25;;;;;;;13.43;64.33;101080.56;5043516;28;20068;-55
2022/11/01 06:21:49;;;;;;;3.08;1.95;;;;;;;13.46;64.85;101083.03;5028967;28;20397;-55
2022/11/01 06:24:17;;;;;;;5.57;1.92;;;;;;;13.45;64.94;101084.00;5039866;28;20035;-54
2022/11/01 06:26:42;;;;;;;5.25;2.13;;;;;;;13.41;65.35;101078.00;5054665;28;20021;-55
2022/11/01 06:29:08;;;;;;;9.98;2.40;;;;;;;13.36;65.83;101094.38;5046957;28;20044;-54
2022/11/01 06:31:36;;;;;;;7.00;2.00;;;;;;;13.35;66.02;101090.00;5033485;28;20065;-55
2022/11/01 06:34:04;;;;;;;6.93;2.20;;;;;;;13.31;66.35;101093.84;5034433;28;20025;-54
2022/11/01 06:36:32;;;;;;;8.73;2.45;;;;;;;13.37;66.17;101104.09;5050229;28;20392;-55
2022/11/01 06:38:57;;;;;;;6.00;2.40;;;;;;;13.34;66.40;101098.13;5046633;28;20029;-55
2022/11/01 06:41:23;;;;;;;8.32;2.40;;;;;;;13.34;66.43;101103.44;5032183;28;20084;-55
2022/11/01 06:43:49;;;;;;;7.82;1.92;;;;;;;13.23;66.96;101111.34;5044272;28;20087;-55
2022/11/01 06:46:14;;;;;;;8.50;2.38;;;;;;;13.26;67.11;101120.00;5033261;28;20041;-54
2022/11/01 06:48:39;;;;;;;7.55;2.22;;;;;;;13.19;67.16;101119.56;5034973;28;20057;-54
2022/11/01 06:51:07;;;;;;;8.80;2.50;;;;;;;13.13;68.00;101111.97;5038123;28;20030;-55
2022/11/01 06:53:33;;;;;;;6.75;2.42;;;;;;;13.14;67.81;101134.19;5008275;28;20075;-55
2022/11/01 06:56:02;;;;;;;11.95;2.42;;;;;;;13.16;67.43;101130.47;5040069;28;20061;-54
2022/11/01 06:58:27;;;;;;;8.55;2.53;;;;;;;13.10;67.57;101138.91;5032436;28;20469;-55
2022/11/01 07:00:53;;;;;;;6.68;2.72;;;;;;;13.16;67.61;101132.28;5032331;28;20124;-55
2022/11/01 07:03:18;;;;;;;8.07;2.92;;;;;;;13.12;67.49;101125.44;5033104;28;20049;-55
2022/11/01 07:05:44;;;;;;;6.97;2.38;;;;;;;13.05;67.53;101133.00;5037018;28;20060;-54
2022/11/01 07:08:12;;;;;;;7.93;2.60;;;;;;;13.07;67.95;101148.94;5033285;28;20022;-56
2022/11/01 07:10:40;;;;;;;9.70;3.20;;;;;;;13.03;68.07;101160.78;5047550;28;20040;-55
2022/11/01 07:13:06;;;;;;;8.02;2.92;;;;;;;12.96;67.89;101147.00;5033811;28;20078;-55
2022/11/01 07:15:32;;;;;;;9.95;2.90;;;;;;;12.99;68.07;101161.97;5050107;28;20032;-55
2022/11/01 07:18:04;;;;;;;10.75;2.95;;;;;;;12.93;67.66;101161.41;5042140;28;20061;-55
2022/11/01 07:20:40;;;;;;;12.05;3.20;;;;;;;12.98;67.88;101173.59;5036452;28;20049;-55
2022/11/01 07:23:10;;;;;;;9.05;2.72;;;;;;;12.95;67.39;101177.34;5034149;28;20029;-52
2022/11/01 07:25:35;;;;;;;;;;;;;;;13.03;67.67;101180.34;5038193;28;20332;-50
2022/11/01 07:28:01;;;;;;;7.05;2.80;;;;;;;12.94;67.61;101200.50;5051137;28;20003;-48
2022/11/01 07:30:29;;;;;;;8.45;2.60;;;;;;;12.95;67.30;101199.53;5040946;28;20021;-47
2022/11/01 07:32:56;;;;;;;13.32;2.78;;;;;;;12.95;66.57;101210.22;5041183;28;20042;-50
2022/11/01 07:35:23;;;;;;;12.77;3.33;;;;;;;12.92;66.84;101188.22;5042695;28;20446;-50
2022/11/01 07:37:48;;;;;;;9.95;3.22;;;;;;;12.89;67.27;101210.63;5043353;28;20079;-51
2022/11/01 07:40:14;;;;;;;11.90;2.97;;;;;;;12.85;67.06;101206.47;5035176;28;20037;-52
2022/11/01 07:42:41;;;;;;;10.88;3.10;;;;;;;12.90;66.40;101208.81;5042881;28;20492;-52
2022/11/01 07:45:09;;;;;;;12.90;3.30;;;;;;;12.83;66.76;101208.38;5049345;28;20063;-50
2022/11/01 07:47:34;;;;;;;7.60;2.85;;;;;;;12.82;66.84;101201.31;5036297;28;20044;-52
2022/11/01 07:49:59;;;;;;;10.13;2.85;;;;;;;12.90;66.58;101209.66;5037881;28;20061;-48
2022/11/01 07:52:25;;;;;;;11.35;3.13;;;;;;;12.91;66.81;101216.75;5031511;28;20032;-49
2022/11/01 07:54:50;;;;;;;14.63;3.35;;;;;;;12.91;66.07;101222.06;5030758;28;20033;-52
2022/11/01 07:57:16;;;;;;;11.85;3.28;;;;;;;12.93;66.18;101217.47;5032401;28;20035;-50
2022/11/01 07:59:41;;;;;;;14.27;3.05;;;;;;;12.94;65.90;101237.00;5032321;28;20041;-51
2022/11/01 08:02:08;;;;;;;11.68;3.28;;;;;;;12.95;65.71;101223.56;5034347;28;20033;-48
2022/11/01 08:04:34;;;;;;;13.20;3.58;;;;;;;12.91;66.17;101230.09;5040781;28;20673;-52
2022/11/01 08:06:59;;;;;;;12.80;3.03;;;;;;;12.93;66.67;101237.97;5032893;28;20036;-49
2022/11/01 08:09:24;;;;;;;13.70;3.47;;;;;;;12.99;65.54;101248.25;5045624;28;20033;-50
2022/11/01 08:11:52;;;;;;;9.48;3.28;;;;;;;12.95;65.72;101244.09;5052127;28;20428;-49
2022/11/01 08:14:17;;;;;;;16.70;4.53;;;;;;;13.03;64.97;101256.91;5045682;28;20056;-49
2022/11/01 08:16:46;;;;;;;13.32;3.58;;;;;;;13.00;65.42;101259.78;5035881;28;20159;-49
2022/11/01 08:19:12;;;;;;;16.00;3.33;;;;;;;13.02;65.53;101257.88;5051205;28;20412;-51
2022/11/01 08:21:38;;;;;;;11.80;3.70;;;;;;;13.03;65.30;101251.56;5051792;28;20294;-49
2022/11/01 08:24:03;;;;;;;18.45;3.60;;;;;;;13.03;65.53;101262.25;5046022;28;20029;-49
2022/11/01 08:26:31;;;;;;;12.85;3.75;;;;;;;13.05;65.09;101252.31;5049854;28;20472;-48
2022/11/01 08:28:57;;;;;;;15.15;4.55;;;;;;;13.04;65.59;101262.16;5051646;28;20369;-49
2022/11/01 08:31:25;;;;;;;13.75;3.58;;;;;;;13.10;64.71;101277.75;5023049;28;20040;-49
2022/11/01 08:33:51;;;;;;;13.25;3.70;;;;;;;13.10;64.91;101288.44;5038403;28;20120;-48
2022/11/01 08:36:16;;;;;;;15.70;3.58;;;;;;;13.15;64.53;101277.47;5043769;28;20128;-49
2022/11/01 08:38:43;;;;;;;16.75;4.25;;;;;;;13.14;65.12;101279.25;5038702;28;20040;-51
2022/11/01 08:41:08;;;;;;;11.18;3.90;;;;;;;13.12;64.67;101270.50;5044023;28;20082;-51
2022/11/01 08:43:34;;;;;;;11.18;3.33;;;;;;;13.15;64.85;101277.47;5029750;28;20033;-50
2022/11/01 08:45:59;;;;;;;16.80;3.53;;;;;;;13.24;65.01;101281.34;5029091;28;20412;-48
2022/11/01 08:48:30;;;;;;;12.98;3.83;;;;;;;13.25;64.27;101275.91;5032440;28;20356;-49
2022/11/01 08:50:59;;;;;;;13.82;3.47;;;;;;;13.26;64.09;101276.75;5051536;28;20472;-47
2022/11/01 08:53:25;;;;;;;8.38;3.35;;;;;;;13.32;63.97;101276.34;5042936;28;20551;-49
2022/11/01 08:55:55;;;;;;;13.20;3.10;;;;;;;13.29;63.81;101296.09;5032422;28;20123;-52
2022/11/01 08:58:20;;;;;;;16.30;4.13;;;;;;;13.35;63.91;101292.16;5043138;28;20037;-50
2022/11/01 09:00:45;;;;;;;10.18;3.75;;;;;;;13.39;64.41;101289.19;5042259;28;20090;-50
2022/11/01 09:03:14;;;;;;;10.60;3.40;;;;;;;13.49;63.40;101284.06;5037166;28;20062;-50
2022/11/01 09:05:39;;;;;;;9.75;3.40;;;;;;;13.50;63.99;101293.81;5041829;28;20036;-49
2022/11/01 09:08:09;;;;;;;17.02;3.85;;;;;;;13.53;63.38;101314.09;5046324;28;20025;-51
2022/11/01 09:10:35;;;;;;;10.23;3.22;;;;;;;13.59;63.30;101297.69;5050652;28;20096;-50
2022/11/01 09:13:00;;;;;;;15.73;3.03;;;;;;;13.66;63.39;101303.44;5045667;28;20499;-47
2022/11/01 09:15:26;;;;;;;17.55;3.78;;;;;;;13.68;63.18;101298.84;5049165;28;20141;-50
2022/11/01 09:17:52;;;;;;;11.98;3.15;;;;;;;13.72;63.50;101306.56;5041401;28;20025;-51
2022/11/01 09:20:18;;;;;;;13.07;3.50;;;;;;;13.80;62.44;101304.22;5044696;28;20093;-47
2022/11/01 09:22:44;;;;;;;16.02;3.65;;;;;;;13.78;63.11;101310.63;5038480;28;20102;-48
2022/11/01 09:25:11;;;;;;;15.02;3.58;;;;;;;13.82;63.05;101313.00;5050277;28;20108;-48
2022/11/01 09:27:36;;;;;;;15.27;3.85;;;;;;;13.89;62.80;101317.91;5049696;28;20029;-50
2022/11/01 09:30:03;;;;;;;13.68;4.20;;;;;;;13.89;63.12;101317.91;5049925;28;20029;-50
2022/11/01 09:32:29;;;;;;;14.35;3.85;;;;;;;13.96;63.11;101317.34;5035795;28;20116;-52
2022/11/01 09:34:55;;;;;;;15.02;3.10;;;;;;;14.03;62.82;101329.34;5043932;28;20461;-48
2022/11/01 09:37:20;;;;;;;15.52;4.03;;;;;;;14.08;62.63;101345.91;5032002;28;20048;-48
2022/11/01 09:39:46;;;;;;;13.55;3.47;;;;;;;14.12;62.69;101343.03;5039915;28;20028;-49
2022/11/01 09:42:23;;;;;;;15.38;3.55;;;;;;;14.15;62.35;101375.78;5037232;28;20045;-49
2022/11/01 09:44:52;;;;;;;16.35;3.50;;;;;;;14.21;62.42;101348.59;5033393;28;20025;-48
2022/11/01 09:47:22;;;;;;;12.45;3.58;;;;;;;14.24;62.64;101350.22;5050002;28;20074;-49
2022/11/01 09:49:50;;;;;;;;;;;;;;;14.35;62.73;101354.78;5035875;28;20162;-50
2022/11/01 09:52:21;;;;;;;18.85;4.10;;;;;;;14.49;61.83;101370.72;5030841;28;19946;-47
2022/11/01 09:54:50;;;;;;;15.48;4.20;;;;;;;14.56;62.39;101371.16;5045961;28;20048;-50
2022/11/01 09:57:42;;;;;;;14.13;4.03;;;;;;;14.68;61.66;101370.31;5027618;28;20493;-51
2022/11/01 10:00:18;;;;;;;13.65;3.55;;;;;;;14.68;61.23;101360.47;5045406;28;20356;-49
2022/11/01 10:03:01;;;;;;;13.70;3.30;;;;;;;14.87;60.98;101370.69;5050720;28;20392;-48
2022/11/01 10:05:49;;;;;;;13.15;3.05;;;;;;;15.12;60.79;101369.75;5047421;28;20032;-50
2022/11/01 10:08:33;;;;;;;14.32;3.45;;;;;;;15.20;59.45;101370.00;5034649;28;20032;-47
2022/11/01 10:11:01;;;;;;;16.88;4.38;;;;;;;15.31;59.41;101389.81;5061207;28;20692;-50
2022/11/01 10:13:54;;;;;;;12.00;3.35;;;;;;;15.49;59.58;101398.31;5031089;28;20029;-50
2022/11/01 10:16:33;;;;;;;11.80;3.22;;;;;;;15.55;58.82;101393.34;5030452;28;20033;-49
2022/11/01 10:19:14;;;;;;;15.82;3.22;;;;;;;15.46;59.01;101394.03;5029931;28;20046;-50
2022/11/01 10:21:55;;;;;;;12.48;3.13;;;;;;;15.55;59.07;101405.88;5031775;28;20043;-51
2022/11/01 10:24:36;;;;;;;15.38;3.38;;;;;;;15.63;58.81;101388.25;5033893;28;20025;-49
2022/11/01 10:27:17;;;;;;;13.63;3.08;;;;;;;15.80;58.50;101388.84;5040267;28;20068;-52
2022/11/01 10:30:06;;;;;;;12.65;3.00;;;;;;;16.22;57.68;101398.06;5030759;28;20427;-47
2022/11/01 10:32:36;;;;;;;14.50;3.88;;;;;;;16.42;56.41;101388.47;5040489;28;20037;-49
2022/11/01 10:35:11;;;;;;;13.48;3.10;;;;;;;16.70;56.07;101407.72;5054464;28;20024;-50
2022/11/01 10:37:40;;;;;;;9.82;3.17;;;;;;;16.90;55.09;101404.34;5054617;28;20468;-53
2022/11/01 10:40:17;;;;;;;15.88;3.60;;;;;;;17.29;54.71;101411.94;5067744;28;20028;-48
2022/11/01 10:42:42;;;;;;;10.93;3.80;;;;;;;17.51;53.21;101409.19;5054282;28;20033;-53
2022/11/01 10:45:16;;;;;;;10.82;2.75;;;;;;;17.76;53.37;101402.59;5033669;28;20400;-53
2022/11/01 10:47:42;;;;;;;12.20;2.92;;;;;;;17.94;51.95;101408.28;5045746;28;20025;-52
2022/11/01 10:50:11;;;;;;;12.52;2.53;;;;;;;18.09;51.90;101390.84;5047506;28;20030;-52
2022/11/01 10:52:57;;;;;;;10.32;2.67;;;;;;;18.40;51.71;101398.94;5039924;28;20036;-53
2022/11/01 10:55:38;;;;;;;13.27;2.75;;;;;;;18.49;51.37;101399.97;5046545;28;20471;-52
2022/11/01 10:58:27;;;;;;;11.00;2.65;;;;;;;18.75;49.82;101413.88;5045509;28;20088;-52
2022/11/01 11:00:53;;;;;;;15.25;3.17;;;;;;;18.78;48.53;101409.06;5040637;28;20041;-52
2022/11/01 11:03:23;;;;;;;12.98;2.78;;;;;;;18.80;49.15;101401.69;5064220;28;20083;-53
2022/11/01 11:05:51;;;;;;;10.57;3.22;;;;;;;18.95;47.86;101404.88;5042726;28;20041;-53
2022/11/01 11:08:19;;;;;;;10.60;3.05;;;;;;;18.98;48.43;101406.44;5041024;28;20030;-53
2022/11/01 11:10:45;;;;;;;15.27;2.65;;;;;;;19.04;48.27;101411.28;5051969;28;20479;-52
2022/11/01 11:13:15;;;;;;;9.93;2.90;;;;;;;19.17;47.59;101402.91;5046059;28;20137;-53
2022/11/01 11:15:54;;;;;;;9.32;2.42;;;;;;;19.20;47.98;101381.91;5033034;28;20469;-53
2022/11/01 11:18:26;;;;;;;10.30;2.75;;;;;;;19.44;47.62;101391.44;5033457;28;20036;-53
2022/11/01 11:20:59;;;;;;;12.80;3.13;;;;;;;19.62;47.60;101400.56;5037917;28;20484;-50
2022/11/01 11:23:28;;;;;;;8.68;2.78;;;;;;;19.73;46.48;101391.50;5035149;28;20037;-53
2022/11/01 11:26:04;;;;;;;11.93;2.58;;;;;;;19.99;46.46;101389.03;5052023;28;20056;-53
2022/11/01 11:28:37;;;;;;;11.50;2.92;;;;;;;20.03;45.57;101387.78;5053126;28;20056;-53
2022/11/01 11:31:33;;;;;;;10.88;2.65;;;;;;;20.50;45.85;101395.88;5046191;28;20049;-53
2022/11/01 11:34:22;;;;;;;10.73;3.05;;;;;;;20.31;45.49;101396.78;5043456;28;20037;-53
2022/11/01 11:36:53;;;;;;;11.45;2.63;;;;;;;20.39;44.65;101396.06;5030274;28;20037;-53